sensor_id;sensor_type;location;lat;lon;timestamp;temperature;humidity
7028;DHT22;3555;53.248;10.336;2022-09-09T00:02:19;14.10;99.90
7028;DHT22;3555;53.248;10.336;2022-09-09T00:04:58;14.20;99.90
7028;DHT22;3555;53.248;10.336;2022-09-09T00:07:36;14.40;99.90
7028;DHT22;3555;53.248;10.336;2022-09-09T00:10:16;14.40;99.90
7028;DHT22;3555;53.248;10.336;2022-09-09T00:12:50;14.30;99.90
7028;DHT22;3555;53.248;10.336;2022-09-09T00:15:23;14.40;99.90
7028;DHT22;3555;53.248;10.336;2022-09-09T00:17:56;14.50;99.90
7028;DHT22;3555;53.248;10.336;2022-09-09T00:20:31;14.60;99.90
7028;DHT22;3555;53.248;10.336;2022-09-09T00:23:04;14.60;99.90
7028;DHT22;3555;53.248;10.336;2022-09-09T00:25:37;14.60;99.90
7028;DHT22;3555;53.248;10.336;2022-09-09T00:28:13;14.50;99.90
7028;DHT22;3555;53.248;10.336;2022-09-09T00:30:43;14.50;99.90
7028;DHT22;3555;53.248;10.336;2022-09-09T00:33:15;14.50;99.90
7028;DHT22;3555;53.248;10.336;2022-09-09T00:35:48;14.50;99.90
7028;DHT22;3555;53.248;10.336;2022-09-09T00:38:16;14.60;99.90
7028;DHT22;3555;53.248;10.336;2022-09-09T00:40:49;14.60;99.90
7028;DHT22;3555;53.248;10.336;2022-09-09T00:43:26;14.40;99.90
7028;DHT22;3555;53.248;10.336;2022-09-09T00:46:09;14.50;99.90
7028;DHT22;3555;53.248;10.336;2022-09-09T00:48:48;14.50;99.90
7028;DHT22;3555;53.248;10.336;2022-09-09T00:51:25;14.50;99.90
7028;DHT22;3555;53.248;10.336;2022-09-09T00:54:13;14.50;99.90
7028;DHT22;3555;53.248;10.336;2022-09-09T00:56:47;14.30;99.90
7028;DHT22;3555;53.248;10.336;2022-09-09T00:59:25;14.50;99.90
7028;DHT22;3555;53.248;10.336;2022-09-09T01:01:54;14.60;99.90
7028;DHT22;3555;53.248;10.336;2022-09-09T01:04:27;14.60;99.90
7028;DHT22;3555;53.248;10.336;2022-09-09T01:07:06;14.60;99.90
7028;DHT22;3555;53.248;10.336;2022-09-09T01:09:41;14.70;99.90
7028;DHT22;3555;53.248;10.336;2022-09-09T01:12:13;14.80;99.90
7028;DHT22;3555;53.248;10.336;2022-09-09T01:14:44;14.60;99.90
7028;DHT22;3555;53.248;10.336;2022-09-09T01:17:16;14.60;99.90
7028;DHT22;3555;53.248;10.336;2022-09-09T01:19:55;14.70;99.90
7028;DHT22;3555;53.248;10.336;2022-09-09T01:22:33;14.50;99.90
7028;DHT22;3555;53.248;10.336;2022-09-09T01:25:28;14.50;99.90
7028;DHT22;3555;53.248;10.336;2022-09-09T01:27:59;14.60;99.90
7028;DHT22;3555;53.248;10.336;2022-09-09T01:30:28;14.70;99.90
7028;DHT22;3555;53.248;10.336;2022-09-09T01:32:56;14.80;99.90
7028;DHT22;3555;53.248;10.336;2022-09-09T01:35:45;14.60;99.90
7028;DHT22;3555;53.248;10.336;2022-09-09T01:38:17;14.60;99.90
7028;DHT22;3555;53.248;10.336;2022-09-09T01:40:44;14.50;99.90
7028;DHT22;3555;53.248;10.336;2022-09-09T01:43:12;14.40;99.90
7028;DHT22;3555;53.248;10.336;2022-09-09T01:45:41;14.50;99.90
7028;DHT22;3555;53.248;10.336;2022-09-09T01:48:08;14.50;99.90
7028;DHT22;3555;53.248;10.336;2022-09-09T01:50:35;14.60;99.90
7028;DHT22;3555;53.248;10.336;2022-09-09T01:53:03;14.60;99.90
7028;DHT22;3555;53.248;10.336;2022-09-09T01:55:32;14.70;99.90
7028;DHT22;3555;53.248;10.336;2022-09-09T01:58:10;14.60;99.90
7028;DHT22;3555;53.248;10.336;2022-09-09T02:00:43;14.60;99.90
7028;DHT22;3555;53.248;10.336;2022-09-09T02:03:21;14.60;99.90
7028;DHT22;3555;53.248;10.336;2022-09-09T02:05:55;14.60;99.90
7028;DHT22;3555;53.248;10.336;2022-09-09T02:08:26;14.60;99.90
7028;DHT22;3555;53.248;10.336;2022-09-09T02:10:57;14.60;99.90
7028;DHT22;3555;53.248;10.336;2022-09-09T02:13:26;14.70;99.90
7028;DHT22;3555;53.248;10.336;2022-09-09T02:15:57;14.70;99.90
7028;DHT22;3555;53.248;10.336;2022-09-09T02:18:28;14.80;99.90
7028;DHT22;3555;53.248;10.336;2022-09-09T02:20:57;14.70;99.90
7028;DHT22;3555;53.248;10.336;2022-09-09T02:23:25;14.80;99.90
7028;DHT22;3555;53.248;10.336;2022-09-09T02:25:53;14.80;99.90
7028;DHT22;3555;53.248;10.336;2022-09-09T02:28:23;14.70;99.90
7028;DHT22;3555;53.248;10.336;2022-09-09T02:30:53;14.70;99.90
7028;DHT22;3555;53.248;10.336;2022-09-09T02:33:22;14.70;99.90
7028;DHT22;3555;53.248;10.336;2022-09-09T02:35:51;14.80;99.90
7028;DHT22;3555;53.248;10.336;2022-09-09T02:38:20;14.80;99.90
7028;DHT22;3555;53.248;10.336;2022-09-09T02:40:48;14.80;99.90
7028;DHT22;3555;53.248;10.336;2022-09-09T02:43:15;14.80;99.90
7028;DHT22;3555;53.248;10.336;2022-09-09T02:45:50;14.90;99.90
7028;DHT22;3555;53.248;10.336;2022-09-09T02:48:28;14.80;99.90
7028;DHT22;3555;53.248;10.336;2022-09-09T02:51:01;14.80;99.90
7028;DHT22;3555;53.248;10.336;2022-09-09T02:53:39;14.80;99.90
7028;DHT22;3555;53.248;10.336;2022-09-09T02:56:11;14.80;99.90
7028;DHT22;3555;53.248;10.336;2022-09-09T02:58:41;14.80;99.90
7028;DHT22;3555;53.248;10.336;2022-09-09T03:01:08;14.80;99.90
7028;DHT22;3555;53.248;10.336;2022-09-09T03:03:36;14.70;99.90
7028;DHT22;3555;53.248;10.336;2022-09-09T03:06:03;14.70;99.90
7028;DHT22;3555;53.248;10.336;2022-09-09T03:08:31;14.70;99.90
7028;DHT22;3555;53.248;10.336;2022-09-09T03:10:59;14.70;99.90
7028;DHT22;3555;53.248;10.336;2022-09-09T03:13:27;14.70;99.90
7028;DHT22;3555;53.248;10.336;2022-09-09T03:15:53;14.70;99.90
7028;DHT22;3555;53.248;10.336;2022-09-09T03:18:20;14.70;99.90
7028;DHT22;3555;53.248;10.336;2022-09-09T03:20:48;14.70;99.90
7028;DHT22;3555;53.248;10.336;2022-09-09T03:23:16;14.70;99.90
7028;DHT22;3555;53.248;10.336;2022-09-09T03:25:46;14.60;99.90
7028;DHT22;3555;53.248;10.336;2022-09-09T03:28:13;14.60;99.90
7028;DHT22;3555;53.248;10.336;2022-09-09T03:30:40;14.60;99.90
7028;DHT22;3555;53.248;10.336;2022-09-09T03:33:07;14.50;99.90
7028;DHT22;3555;53.248;10.336;2022-09-09T03:35:34;14.50;99.90
7028;DHT22;3555;53.248;10.336;2022-09-09T03:38:02;14.50;99.90
7028;DHT22;3555;53.248;10.336;2022-09-09T03:40:29;14.50;99.90
7028;DHT22;3555;53.248;10.336;2022-09-09T03:42:56;14.40;99.90
7028;DHT22;3555;53.248;10.336;2022-09-09T03:45:23;14.40;99.90
7028;DHT22;3555;53.248;10.336;2022-09-09T03:47:49;14.40;99.90
7028;DHT22;3555;53.248;10.336;2022-09-09T03:50:16;14.30;99.90
7028;DHT22;3555;53.248;10.336;2022-09-09T03:52:43;14.40;99.90
7028;DHT22;3555;53.248;10.336;2022-09-09T03:55:13;14.30;99.90
7028;DHT22;3555;53.248;10.336;2022-09-09T03:57:39;14.30;99.90
7028;DHT22;3555;53.248;10.336;2022-09-09T04:00:08;14.30;99.90
7028;DHT22;3555;53.248;10.336;2022-09-09T04:02:35;14.20;99.90
7028;DHT22;3555;53.248;10.336;2022-09-09T04:05:02;14.10;99.90
7028;DHT22;3555;53.248;10.336;2022-09-09T04:07:28;13.90;99.90
7028;DHT22;3555;53.248;10.336;2022-09-09T04:09:55;13.90;99.90
7028;DHT22;3555;53.248;10.336;2022-09-09T04:12:23;13.90;99.90
7028;DHT22;3555;53.248;10.336;2022-09-09T04:14:50;13.90;99.90
7028;DHT22;3555;53.248;10.336;2022-09-09T04:17:17;13.80;99.90
7028;DHT22;3555;53.248;10.336;2022-09-09T04:19:44;13.60;99.90
7028;DHT22;3555;53.248;10.336;2022-09-09T04:22:11;13.60;99.90
7028;DHT22;3555;53.248;10.336;2022-09-09T04:24:37;13.70;99.90
7028;DHT22;3555;53.248;10.336;2022-09-09T04:27:04;13.70;99.90
7028;DHT22;3555;53.248;10.336;2022-09-09T04:29:32;13.70;99.90
7028;DHT22;3555;53.248;10.336;2022-09-09T04:32:00;13.70;99.90
7028;DHT22;3555;53.248;10.336;2022-09-09T04:34:26;13.70;99.90
7028;DHT22;3555;53.248;10.336;2022-09-09T04:36:54;13.70;99.90
7028;DHT22;3555;53.248;10.336;2022-09-09T04:39:22;13.70;99.90
7028;DHT22;3555;53.248;10.336;2022-09-09T04:41:49;13.60;99.90
7028;DHT22;3555;53.248;10.336;2022-09-09T04:44:16;13.70;99.90
7028;DHT22;3555;53.248;10.336;2022-09-09T04:46:44;13.80;99.90
7028;DHT22;3555;53.248;10.336;2022-09-09T04:49:10;13.80;99.90
7028;DHT22;3555;53.248;10.336;2022-09-09T04:51:37;13.70;99.90
7028;DHT22;3555;53.248;10.336;2022-09-09T04:54:04;13.70;99.90
7028;DHT22;3555;53.248;10.336;2022-09-09T04:56:31;13.80;99.90
7028;DHT22;3555;53.248;10.336;2022-09-09T04:58:58;13.80;99.90
7028;DHT22;3555;53.248;10.336;2022-09-09T05:01:25;13.80;99.90
7028;DHT22;3555;53.248;10.336;2022-09-09T05:03:53;13.80;99.90
7028;DHT22;3555;53.248;10.336;2022-09-09T05:06:21;13.60;99.90
7028;DHT22;3555;53.248;10.336;2022-09-09T05:08:48;13.40;99.90
7028;DHT22;3555;53.248;10.336;2022-09-09T05:11:17;13.50;99.90
7028;DHT22;3555;53.248;10.336;2022-09-09T05:13:44;13.50;99.90
7028;DHT22;3555;53.248;10.336;2022-09-09T05:16:11;13.50;99.90
7028;DHT22;3555;53.248;10.336;2022-09-09T05:18:38;13.50;99.90
7028;DHT22;3555;53.248;10.336;2022-09-09T05:21:07;13.60;99.90
7028;DHT22;3555;53.248;10.336;2022-09-09T05:23:34;13.60;99.90
7028;DHT22;3555;53.248;10.336;2022-09-09T05:26:02;13.50;99.90
7028;DHT22;3555;53.248;10.336;2022-09-09T05:28:29;13.50;99.90
7028;DHT22;3555;53.248;10.336;2022-09-09T05:30:58;13.60;99.90
7028;DHT22;3555;53.248;10.336;2022-09-09T05:33:26;13.70;99.90
7028;DHT22;3555;53.248;10.336;2022-09-09T05:35:57;13.90;99.90
7028;DHT22;3555;53.248;10.336;2022-09-09T05:38:26;13.80;99.90
7028;DHT22;3555;53.248;10.336;2022-09-09T05:40:53;13.70;99.90
7028;DHT22;3555;53.248;10.336;2022-09-09T05:43:20;13.70;99.90
7028;DHT22;3555;53.248;10.336;2022-09-09T05:45:48;13.70;99.90
7028;DHT22;3555;53.248;10.336;2022-09-09T05:48:15;13.70;99.90
7028;DHT22;3555;53.248;10.336;2022-09-09T05:50:42;13.90;99.90
7028;DHT22;3555;53.248;10.336;2022-09-09T05:53:10;13.80;99.90
7028;DHT22;3555;53.248;10.336;2022-09-09T05:55:38;13.80;99.90
7028;DHT22;3555;53.248;10.336;2022-09-09T05:58:05;13.80;99.90
7028;DHT22;3555;53.248;10.336;2022-09-09T06:00:32;13.80;99.90
7028;DHT22;3555;53.248;10.336;2022-09-09T06:02:59;13.80;99.90
7028;DHT22;3555;53.248;10.336;2022-09-09T06:05:26;13.80;99.90
7028;DHT22;3555;53.248;10.336;2022-09-09T06:07:53;13.90;99.90
7028;DHT22;3555;53.248;10.336;2022-09-09T06:10:20;14.00;99.90
7028;DHT22;3555;53.248;10.336;2022-09-09T06:12:49;14.00;99.90
7028;DHT22;3555;53.248;10.336;2022-09-09T06:15:18;14.10;99.90
7028;DHT22;3555;53.248;10.336;2022-09-09T06:17:45;14.10;99.90
7028;DHT22;3555;53.248;10.336;2022-09-09T06:20:12;14.10;99.90
7028;DHT22;3555;53.248;10.336;2022-09-09T06:22:40;14.30;99.90
7028;DHT22;3555;53.248;10.336;2022-09-09T06:25:08;14.20;99.90
7028;DHT22;3555;53.248;10.336;2022-09-09T06:27:35;14.30;99.90
7028;DHT22;3555;53.248;10.336;2022-09-09T06:30:04;14.40;99.90
7028;DHT22;3555;53.248;10.336;2022-09-09T06:32:31;14.50;99.90
7028;DHT22;3555;53.248;10.336;2022-09-09T06:35:00;14.60;99.90
7028;DHT22;3555;53.248;10.336;2022-09-09T06:37:27;14.60;99.90
7028;DHT22;3555;53.248;10.336;2022-09-09T06:39:54;14.70;99.90
7028;DHT22;3555;53.248;10.336;2022-09-09T06:42:21;14.70;99.90
7028;DHT22;3555;53.248;10.336;2022-09-09T06:44:48;14.80;99.90
7028;DHT22;3555;53.248;10.336;2022-09-09T06:47:16;14.60;99.90
7028;DHT22;3555;53.248;10.336;2022-09-09T06:49:43;14.50;99.90
7028;DHT22;3555;53.248;10.336;2022-09-09T06:52:10;14.50;99.90
7028;DHT22;3555;53.248;10.336;2022-09-09T06:54:37;14.50;99.90
7028;DHT22;3555;53.248;10.336;2022-09-09T06:57:04;14.50;99.90
7028;DHT22;3555;53.248;10.336;2022-09-09T06:59:32;14.70;99.90
7028;DHT22;3555;53.248;10.336;2022-09-09T07:01:59;14.80;99.90
7028;DHT22;3555;53.248;10.336;2022-09-09T07:04:28;14.80;99.90
7028;DHT22;3555;53.248;10.336;2022-09-09T07:06:54;14.70;99.90
7028;DHT22;3555;53.248;10.336;2022-09-09T07:09:21;14.80;99.90
7028;DHT22;3555;53.248;10.336;2022-09-09T07:11:50;15.00;99.90
7028;DHT22;3555;53.248;10.336;2022-09-09T07:14:18;15.10;99.90
7028;DHT22;3555;53.248;10.336;2022-09-09T07:16:46;15.20;99.90
7028;DHT22;3555;53.248;10.336;2022-09-09T07:19:14;15.30;99.90
7028;DHT22;3555;53.248;10.336;2022-09-09T07:21:42;15.40;99.90
7028;DHT22;3555;53.248;10.336;2022-09-09T07:24:10;15.40;99.90
7028;DHT22;3555;53.248;10.336;2022-09-09T07:26:38;15.30;99.90
7028;DHT22;3555;53.248;10.336;2022-09-09T07:29:05;15.40;99.90
7028;DHT22;3555;53.248;10.336;2022-09-09T07:31:33;15.40;99.90
7028;DHT22;3555;53.248;10.336;2022-09-09T07:34:01;15.50;99.90
7028;DHT22;3555;53.248;10.336;2022-09-09T07:36:29;15.60;99.90
7028;DHT22;3555;53.248;10.336;2022-09-09T07:39:01;15.60;99.90
7028;DHT22;3555;53.248;10.336;2022-09-09T07:41:30;15.60;99.90
7028;DHT22;3555;53.248;10.336;2022-09-09T07:44:03;15.60;99.90
7028;DHT22;3555;53.248;10.336;2022-09-09T07:46:30;15.50;99.90
7028;DHT22;3555;53.248;10.336;2022-09-09T07:48:57;15.60;99.90
7028;DHT22;3555;53.248;10.336;2022-09-09T07:51:25;15.70;99.90
7028;DHT22;3555;53.248;10.336;2022-09-09T07:53:54;15.90;99.90
7028;DHT22;3555;53.248;10.336;2022-09-09T07:56:25;15.90;99.90
7028;DHT22;3555;53.248;10.336;2022-09-09T07:58:54;16.10;99.90
7028;DHT22;3555;53.248;10.336;2022-09-09T08:01:23;16.20;99.90
7028;DHT22;3555;53.248;10.336;2022-09-09T08:03:54;16.30;99.90
7028;DHT22;3555;53.248;10.336;2022-09-09T08:06:22;16.30;99.90
7028;DHT22;3555;53.248;10.336;2022-09-09T08:08:51;16.40;99.90
7028;DHT22;3555;53.248;10.336;2022-09-09T08:11:18;16.40;99.90
7028;DHT22;3555;53.248;10.336;2022-09-09T08:13:46;16.50;99.90
7028;DHT22;3555;53.248;10.336;2022-09-09T08:16:15;16.60;99.90
7028;DHT22;3555;53.248;10.336;2022-09-09T08:18:42;16.90;99.90
7028;DHT22;3555;53.248;10.336;2022-09-09T08:21:12;17.10;99.90
7028;DHT22;3555;53.248;10.336;2022-09-09T08:23:40;17.10;99.90
7028;DHT22;3555;53.248;10.336;2022-09-09T08:26:10;17.20;99.90
7028;DHT22;3555;53.248;10.336;2022-09-09T08:28:37;17.00;99.90
7028;DHT22;3555;53.248;10.336;2022-09-09T08:31:07;17.10;99.90
7028;DHT22;3555;53.248;10.336;2022-09-09T08:33:34;17.20;99.90
7028;DHT22;3555;53.248;10.336;2022-09-09T08:36:04;17.60;99.90
7028;DHT22;3555;53.248;10.336;2022-09-09T08:38:31;17.90;99.90
7028;DHT22;3555;53.248;10.336;2022-09-09T08:41:07;18.10;99.90
7028;DHT22;3555;53.248;10.336;2022-09-09T08:43:36;18.40;99.90
7028;DHT22;3555;53.248;10.336;2022-09-09T08:46:08;18.50;99.90
7028;DHT22;3555;53.248;10.336;2022-09-09T08:48:46;18.60;99.90
7028;DHT22;3555;53.248;10.336;2022-09-09T08:51:18;18.60;99.90
7028;DHT22;3555;53.248;10.336;2022-09-09T08:53:48;18.50;99.90
7028;DHT22;3555;53.248;10.336;2022-09-09T08:56:18;18.70;99.90
7028;DHT22;3555;53.248;10.336;2022-09-09T08:58:49;19.00;99.90
7028;DHT22;3555;53.248;10.336;2022-09-09T09:01:30;19.20;99.90
7028;DHT22;3555;53.248;10.336;2022-09-09T09:04:04;19.20;99.90
7028;DHT22;3555;53.248;10.336;2022-09-09T09:06:44;19.20;99.90
7028;DHT22;3555;53.248;10.336;2022-09-09T09:09:18;19.10;99.90
7028;DHT22;3555;53.248;10.336;2022-09-09T09:11:50;19.00;99.90
7028;DHT22;3555;53.248;10.336;2022-09-09T09:14:20;19.20;99.90
7028;DHT22;3555;53.248;10.336;2022-09-09T09:16:54;19.30;99.90
7028;DHT22;3555;53.248;10.336;2022-09-09T09:19:23;19.40;99.90
7028;DHT22;3555;53.248;10.336;2022-09-09T09:21:54;19.50;99.90
7028;DHT22;3555;53.248;10.336;2022-09-09T09:24:28;19.70;99.90
7028;DHT22;3555;53.248;10.336;2022-09-09T09:26:59;19.70;99.90
7028;DHT22;3555;53.248;10.336;2022-09-09T09:29:27;19.50;99.90
7028;DHT22;3555;53.248;10.336;2022-09-09T09:31:56;19.60;99.90
7028;DHT22;3555;53.248;10.336;2022-09-09T09:34:26;19.20;99.90
7028;DHT22;3555;53.248;10.336;2022-09-09T09:36:55;19.20;99.90
7028;DHT22;3555;53.248;10.336;2022-09-09T09:39:24;19.40;99.90
7028;DHT22;3555;53.248;10.336;2022-09-09T09:41:52;19.10;99.90
7028;DHT22;3555;53.248;10.336;2022-09-09T09:44:24;19.00;99.90
7028;DHT22;3555;53.248;10.336;2022-09-09T09:46:51;19.00;99.90
7028;DHT22;3555;53.248;10.336;2022-09-09T09:49:20;18.80;99.90
7028;DHT22;3555;53.248;10.336;2022-09-09T09:51:47;18.90;99.90
7028;DHT22;3555;53.248;10.336;2022-09-09T09:54:18;19.10;99.90
7028;DHT22;3555;53.248;10.336;2022-09-09T09:56:49;19.10;99.90
7028;DHT22;3555;53.248;10.336;2022-09-09T09:59:21;19.20;99.90
7028;DHT22;3555;53.248;10.336;2022-09-09T10:01:49;19.50;99.90
7028;DHT22;3555;53.248;10.336;2022-09-09T10:04:17;19.70;99.90
7028;DHT22;3555;53.248;10.336;2022-09-09T10:06:47;19.90;99.90
7028;DHT22;3555;53.248;10.336;2022-09-09T10:09:23;19.90;99.90
7028;DHT22;3555;53.248;10.336;2022-09-09T10:11:55;19.70;99.90
7028;DHT22;3555;53.248;10.336;2022-09-09T10:14:31;20.00;99.90
7028;DHT22;3555;53.248;10.336;2022-09-09T10:17:13;20.10;99.90
7028;DHT22;3555;53.248;10.336;2022-09-09T10:19:46;20.10;99.90
7028;DHT22;3555;53.248;10.336;2022-09-09T10:22:26;20.20;99.90
7028;DHT22;3555;53.248;10.336;2022-09-09T10:27:54;20.00;99.90
7028;DHT22;3555;53.248;10.336;2022-09-09T10:30:26;20.30;99.90
7028;DHT22;3555;53.248;10.336;2022-09-09T10:33:01;20.50;99.90
7028;DHT22;3555;53.248;10.336;2022-09-09T10:35:34;20.70;99.90
7028;DHT22;3555;53.248;10.336;2022-09-09T10:38:11;20.90;99.90
7028;DHT22;3555;53.248;10.336;2022-09-09T10:40:43;20.70;99.90
7028;DHT22;3555;53.248;10.336;2022-09-09T10:43:20;20.90;99.90
7028;DHT22;3555;53.248;10.336;2022-09-09T10:45:57;21.10;99.90
7028;DHT22;3555;53.248;10.336;2022-09-09T10:48:31;20.80;99.90
7028;DHT22;3555;53.248;10.336;2022-09-09T10:51:13;20.80;99.90
7028;DHT22;3555;53.248;10.336;2022-09-09T10:53:51;21.10;99.90
7028;DHT22;3555;53.248;10.336;2022-09-09T10:56:21;21.40;99.90
7028;DHT22;3555;53.248;10.336;2022-09-09T10:58:53;21.30;99.90
7028;DHT22;3555;53.248;10.336;2022-09-09T11:01:24;21.50;99.90
7028;DHT22;3555;53.248;10.336;2022-09-09T11:03:55;21.40;99.90
7028;DHT22;3555;53.248;10.336;2022-09-09T11:06:28;21.20;99.90
7028;DHT22;3555;53.248;10.336;2022-09-09T11:08:57;21.20;99.90
7028;DHT22;3555;53.248;10.336;2022-09-09T11:11:30;21.30;99.90
7028;DHT22;3555;53.248;10.336;2022-09-09T11:14:02;21.20;99.90
7028;DHT22;3555;53.248;10.336;2022-09-09T11:16:35;21.30;99.90
7028;DHT22;3555;53.248;10.336;2022-09-09T11:19:13;21.30;99.90
7028;DHT22;3555;53.248;10.336;2022-09-09T11:21:45;21.10;99.90
7028;DHT22;3555;53.248;10.336;2022-09-09T11:24:18;20.80;99.90
7028;DHT22;3555;53.248;10.336;2022-09-09T11:26:50;20.90;99.90
7028;DHT22;3555;53.248;10.336;2022-09-09T11:29:49;20.90;99.90
7028;DHT22;3555;53.248;10.336;2022-09-09T11:32:43;21.00;99.90
7028;DHT22;3555;53.248;10.336;2022-09-09T11:35:26;20.70;99.90
7028;DHT22;3555;53.248;10.336;2022-09-09T11:38:16;20.80;99.90
7028;DHT22;3555;53.248;10.336;2022-09-09T11:40:46;21.10;99.90
7028;DHT22;3555;53.248;10.336;2022-09-09T11:43:24;21.40;99.90
7028;DHT22;3555;53.248;10.336;2022-09-09T11:45:53;21.60;99.90
7028;DHT22;3555;53.248;10.336;2022-09-09T11:48:26;21.60;99.90
7028;DHT22;3555;53.248;10.336;2022-09-09T11:50:59;21.60;99.90
7028;DHT22;3555;53.248;10.336;2022-09-09T11:53:26;21.60;99.90
7028;DHT22;3555;53.248;10.336;2022-09-09T11:56:12;21.60;99.90
7028;DHT22;3555;53.248;10.336;2022-09-09T11:58:43;21.50;99.90
7028;DHT22;3555;53.248;10.336;2022-09-09T12:01:16;21.30;99.90
7028;DHT22;3555;53.248;10.336;2022-09-09T12:03:45;20.90;99.90
7028;DHT22;3555;53.248;10.336;2022-09-09T12:06:17;20.60;99.90
7028;DHT22;3555;53.248;10.336;2022-09-09T12:08:48;20.40;99.90
7028;DHT22;3555;53.248;10.336;2022-09-09T12:11:26;20.10;99.90
7028;DHT22;3555;53.248;10.336;2022-09-09T12:13:54;19.90;99.90
7028;DHT22;3555;53.248;10.336;2022-09-09T12:16:32;20.10;99.90
7028;DHT22;3555;53.248;10.336;2022-09-09T12:19:05;20.10;99.90
7028;DHT22;3555;53.248;10.336;2022-09-09T12:21:36;19.90;99.90
7028;DHT22;3555;53.248;10.336;2022-09-09T12:24:08;19.80;99.90
7028;DHT22;3555;53.248;10.336;2022-09-09T12:26:39;19.80;99.90
7028;DHT22;3555;53.248;10.336;2022-09-09T12:29:18;19.50;99.90
7028;DHT22;3555;53.248;10.336;2022-09-09T12:31:54;19.60;99.90
7028;DHT22;3555;53.248;10.336;2022-09-09T12:34:34;19.40;99.90
7028;DHT22;3555;53.248;10.336;2022-09-09T12:37:05;19.40;99.90
7028;DHT22;3555;53.248;10.336;2022-09-09T12:39:35;19.30;99.90
7028;DHT22;3555;53.248;10.336;2022-09-09T12:42:16;19.40;99.90
7028;DHT22;3555;53.248;10.336;2022-09-09T12:44:51;19.50;99.90
7028;DHT22;3555;53.248;10.336;2022-09-09T12:47:20;19.70;99.90
7028;DHT22;3555;53.248;10.336;2022-09-09T12:49:48;19.80;99.90
7028;DHT22;3555;53.248;10.336;2022-09-09T12:52:21;19.90;99.90
7028;DHT22;3555;53.248;10.336;2022-09-09T12:54:49;20.00;99.90
7028;DHT22;3555;53.248;10.336;2022-09-09T12:57:18;20.10;99.90
7028;DHT22;3555;53.248;10.336;2022-09-09T12:59:46;20.30;99.90
7028;DHT22;3555;53.248;10.336;2022-09-09T13:02:21;20.30;99.90
7028;DHT22;3555;53.248;10.336;2022-09-09T13:04:49;20.60;99.90
7028;DHT22;3555;53.248;10.336;2022-09-09T13:07:17;20.60;99.90
7028;DHT22;3555;53.248;10.336;2022-09-09T13:09:45;20.70;99.90
7028;DHT22;3555;53.248;10.336;2022-09-09T13:12:14;20.90;99.90
7028;DHT22;3555;53.248;10.336;2022-09-09T13:14:45;21.00;99.90
7028;DHT22;3555;53.248;10.336;2022-09-09T13:17:20;21.10;99.90
7028;DHT22;3555;53.248;10.336;2022-09-09T13:19:48;21.10;99.90
7028;DHT22;3555;53.248;10.336;2022-09-09T13:22:29;21.00;99.90
7028;DHT22;3555;53.248;10.336;2022-09-09T13:25:00;21.10;99.90
7028;DHT22;3555;53.248;10.336;2022-09-09T13:27:31;21.20;99.90
7028;DHT22;3555;53.248;10.336;2022-09-09T13:30:01;21.10;99.90
7028;DHT22;3555;53.248;10.336;2022-09-09T13:32:28;21.00;99.90
7028;DHT22;3555;53.248;10.336;2022-09-09T13:34:58;21.10;99.90
7028;DHT22;3555;53.248;10.336;2022-09-09T13:37:30;20.90;99.90
7028;DHT22;3555;53.248;10.336;2022-09-09T13:39:59;20.70;99.90
7028;DHT22;3555;53.248;10.336;2022-09-09T13:42:27;20.70;99.90
7028;DHT22;3555;53.248;10.336;2022-09-09T13:44:55;20.70;99.90
7028;DHT22;3555;53.248;10.336;2022-09-09T13:47:28;20.70;99.90
7028;DHT22;3555;53.248;10.336;2022-09-09T13:49:57;20.80;99.90
7028;DHT22;3555;53.248;10.336;2022-09-09T13:52:25;20.80;99.90
7028;DHT22;3555;53.248;10.336;2022-09-09T13:54:53;20.60;99.90
7028;DHT22;3555;53.248;10.336;2022-09-09T13:57:22;20.50;99.90
7028;DHT22;3555;53.248;10.336;2022-09-09T13:59:51;20.40;99.90
7028;DHT22;3555;53.248;10.336;2022-09-09T14:02:18;20.00;99.90
7028;DHT22;3555;53.248;10.336;2022-09-09T14:04:48;19.60;99.90
7028;DHT22;3555;53.248;10.336;2022-09-09T14:07:17;19.60;99.90
7028;DHT22;3555;53.248;10.336;2022-09-09T14:09:44;19.30;99.90
7028;DHT22;3555;53.248;10.336;2022-09-09T14:12:15;18.90;99.90
7028;DHT22;3555;53.248;10.336;2022-09-09T14:14:42;19.00;99.90
7028;DHT22;3555;53.248;10.336;2022-09-09T14:17:09;19.10;99.90
7028;DHT22;3555;53.248;10.336;2022-09-09T14:19:36;19.10;99.90
7028;DHT22;3555;53.248;10.336;2022-09-09T14:22:04;19.10;99.90
7028;DHT22;3555;53.248;10.336;2022-09-09T14:24:31;19.10;99.90
7028;DHT22;3555;53.248;10.336;2022-09-09T14:26:58;19.10;99.90
7028;DHT22;3555;53.248;10.336;2022-09-09T14:29:25;19.20;99.90
7028;DHT22;3555;53.248;10.336;2022-09-09T14:31:52;19.30;99.90
7028;DHT22;3555;53.248;10.336;2022-09-09T14:34:19;19.40;99.90
7028;DHT22;3555;53.248;10.336;2022-09-09T14:36:46;19.30;99.90
7028;DHT22;3555;53.248;10.336;2022-09-09T14:39:14;19.30;99.90
7028;DHT22;3555;53.248;10.336;2022-09-09T14:41:41;19.20;99.90
7028;DHT22;3555;53.248;10.336;2022-09-09T14:44:08;19.00;99.90
7028;DHT22;3555;53.248;10.336;2022-09-09T14:46:35;18.60;99.90
7028;DHT22;3555;53.248;10.336;2022-09-09T14:49:02;18.20;99.90
7028;DHT22;3555;53.248;10.336;2022-09-09T14:51:29;18.00;99.90
7028;DHT22;3555;53.248;10.336;2022-09-09T14:53:57;17.90;99.90
7028;DHT22;3555;53.248;10.336;2022-09-09T14:56:27;17.70;99.90
7028;DHT22;3555;53.248;10.336;2022-09-09T14:58:56;17.30;99.90
7028;DHT22;3555;53.248;10.336;2022-09-09T15:01:24;17.30;99.90
7028;DHT22;3555;53.248;10.336;2022-09-09T15:03:55;17.10;99.90
7028;DHT22;3555;53.248;10.336;2022-09-09T15:06:24;17.20;99.90
7028;DHT22;3555;53.248;10.336;2022-09-09T15:08:53;17.20;99.90
7028;DHT22;3555;53.248;10.336;2022-09-09T15:11:25;17.20;99.90
7028;DHT22;3555;53.248;10.336;2022-09-09T15:13:53;17.40;99.90
7028;DHT22;3555;53.248;10.336;2022-09-09T15:16:23;17.50;99.90
7028;DHT22;3555;53.248;10.336;2022-09-09T15:18:51;17.40;99.90
7028;DHT22;3555;53.248;10.336;2022-09-09T15:21:21;17.40;99.90
7028;DHT22;3555;53.248;10.336;2022-09-09T15:23:49;17.50;99.90
7028;DHT22;3555;53.248;10.336;2022-09-09T15:26:16;17.50;99.90
7028;DHT22;3555;53.248;10.336;2022-09-09T15:28:45;17.60;99.90
7028;DHT22;3555;53.248;10.336;2022-09-09T15:31:15;17.70;99.90
7028;DHT22;3555;53.248;10.336;2022-09-09T15:33:47;17.80;99.90
7028;DHT22;3555;53.248;10.336;2022-09-09T15:36:15;17.80;99.90
7028;DHT22;3555;53.248;10.336;2022-09-09T15:38:42;18.00;99.90
7028;DHT22;3555;53.248;10.336;2022-09-09T15:41:09;18.00;99.90
7028;DHT22;3555;53.248;10.336;2022-09-09T15:43:36;17.90;99.90
7028;DHT22;3555;53.248;10.336;2022-09-09T15:46:21;18.00;99.90
7028;DHT22;3555;53.248;10.336;2022-09-09T15:48:50;18.10;99.90
7028;DHT22;3555;53.248;10.336;2022-09-09T15:51:17;18.10;99.90
7028;DHT22;3555;53.248;10.336;2022-09-09T15:53:44;18.30;99.90
7028;DHT22;3555;53.248;10.336;2022-09-09T15:56:11;18.40;99.90
7028;DHT22;3555;53.248;10.336;2022-09-09T15:58:38;18.40;99.90
7028;DHT22;3555;53.248;10.336;2022-09-09T16:01:07;18.40;99.90
7028;DHT22;3555;53.248;10.336;2022-09-09T16:03:35;18.40;99.90
7028;DHT22;3555;53.248;10.336;2022-09-09T16:06:02;18.40;99.90
7028;DHT22;3555;53.248;10.336;2022-09-09T16:08:32;18.60;99.90